logo
Search for airport 
image banner adimage banner adimage banner ad
image banner ad

SKNB - Banco De La Republica

Located in , Colombia

ICAO - , IATA -

Data provided by Airmate  

General information

Coordinates: N1°40'20" W78°8'32"
Elevation is 118 feet MSL.
 
View others Airports in Nariño

Operational data

Special qualification required
Current time UTC:
Current local time:
Weather at : - ( 0 km )
METAR: KANR 141725Z AUTO 03007KT 10SM FEW022 35/24 A3030 RMK A01
View NOTAMs / SUP AIP / TFR affecting this airport [VIEW]
Communications frequencies: [VIEW]

Runways:

Airport contact information

Address: Colombia

Satellite view of SKNB